Time;durP1;ratioP1;P1;durP2;ratioP2;P2;SDS_P1;SDS_P2;PMS_P1;PMS_P2;Temp;Humidity;BMP_temperature;BMP_pressure;BME280_temperature;BME280_humidity;BME280_pressure;Samples;Min_cycle;Max_cycle;Signal;HPM_P1;HPM_P2
2022/11/11 00:01:18;;;;;;;3.45;0.80;;;;;;;18.55;49.18;102820.59;16118527;19;129664;-43
2022/11/11 00:06:39;;;;;;;2.72;0.90;;;;;;;18.53;49.53;102833.78;16118775;19;129538;-42
2022/11/11 00:12:01;;;;;;;2.08;0.60;;;;;;;18.51;49.67;102829.53;16120029;19;130625;-43
2022/11/11 00:28:43;;;;;;;0.63;0.52;;;;;;;18.46;49.62;102839.28;16118568;19;130348;-43
2022/11/11 00:34:05;;;;;;;1.30;0.70;;;;;;;18.45;49.48;102843.13;16116604;19;129585;-43
2022/11/11 00:39:27;;;;;;;2.53;0.70;;;;;;;18.45;49.83;102850.56;16122794;19;130480;-43
2022/11/11 00:44:48;;;;;;;1.05;0.70;;;;;;;18.44;49.69;102859.94;16119799;19;129537;-43
2022/11/11 00:55:57;;;;;;;1.42;0.70;;;;;;;18.41;49.49;102857.56;16121338;19;130539;-42
2022/11/11 01:01:19;;;;;;;0.60;0.60;;;;;;;18.40;49.51;102864.19;16116858;19;131660;-42
2022/11/11 01:06:41;;;;;;;1.10;0.57;;;;;;;18.38;49.60;102853.25;16118379;19;129477;-43
2022/11/11 01:12:03;;;;;;;1.88;0.73;;;;;;;18.38;49.59;102844.94;16118682;19;131078;-42
2022/11/11 01:17:24;;;;;;;1.05;0.68;;;;;;;18.37;49.67;102851.53;16115149;19;131364;-43
2022/11/11 01:22:46;;;;;;;1.08;0.60;;;;;;;18.36;49.48;102855.34;16116830;19;130158;-43
2022/11/11 01:28:08;;;;;;;0.82;0.60;;;;;;;18.35;49.27;102853.63;16130364;19;129809;-42
2022/11/11 01:33:30;;;;;;;0.70;0.57;;;;;;;18.35;49.32;102859.19;16128999;19;129569;-42
2022/11/11 01:38:55;;;;;;;2.05;0.82;;;;;;;18.34;49.55;102854.69;16132125;19;129101;-42
2022/11/11 01:44:38;;;;;;;1.23;0.63;;;;;;;18.33;49.71;102860.44;16129771;19;129242;-42
2022/11/11 01:50:01;;;;;;;1.27;0.80;;;;;;;18.31;49.35;102869.81;16131864;19;130629;-42
2022/11/11 01:55:24;;;;;;;0.98;0.60;;;;;;;18.30;49.69;102865.31;16127711;19;134529;-42
2022/11/11 02:00:46;;;;;;;1.63;1.13;;;;;;;18.29;49.55;102863.59;16127901;19;130264;-43
2022/11/11 02:06:08;;;;;;;1.55;0.85;;;;;;;18.28;49.75;102856.34;16130741;19;129578;-43
2022/11/11 02:17:16;;;;;;;2.05;1.40;;;;;;;18.27;49.28;102851.00;16131128;19;129884;-43
2022/11/11 02:22:52;;;;;;;1.75;0.75;;;;;;;18.27;49.62;102851.88;16128722;19;129947;-42
2022/11/11 02:28:16;;;;;;;0.70;0.60;;;;;;;18.25;49.71;102842.03;16129114;19;130002;-43
2022/11/11 02:33:38;;;;;;;2.75;0.68;;;;;;;18.25;49.28;102842.03;16126260;19;130082;-42
2022/11/11 02:39:00;;;;;;;0.80;0.43;;;;;;;18.23;49.55;102842.22;16130105;19;129491;-42
2022/11/11 02:44:24;;;;;;;1.55;0.70;;;;;;;18.23;49.67;102821.97;16126134;19;129625;-42
2022/11/11 02:49:46;;;;;;;2.15;0.70;;;;;;;18.23;49.40;102833.03;16125507;19;130040;-43
2022/11/11 02:55:08;;;;;;;2.10;0.90;;;;;;;18.22;49.41;102836.88;16126074;19;129584;-43
2022/11/11 03:00:30;;;;;;;1.13;0.60;;;;;;;18.21;49.59;102841.56;16126018;19;129293;-43
2022/11/11 03:05:51;;;;;;;0.57;0.50;;;;;;;18.21;49.36;102841.56;16124003;19;129628;-42
2022/11/11 03:11:13;;;;;;;1.23;0.63;;;;;;;18.20;49.45;102830.69;16124103;19;130065;-43
2022/11/11 03:22:15;;;;;;;1.25;0.80;;;;;;;18.20;49.47;102826.00;16126035;19;130343;-43
2022/11/11 03:27:56;;;;;;;1.42;0.77;;;;;;;18.18;49.31;102819.78;16127044;19;129864;-42
2022/11/11 03:33:18;;;;;;;0.73;0.60;;;;;;;18.17;49.20;102831.91;16124178;19;129261;-43
2022/11/11 03:38:40;;;;;;;1.77;0.70;;;;;;;18.18;49.22;102835.56;16123460;19;129667;-41
2022/11/11 03:44:02;;;;;;;0.90;0.60;;;;;;;18.15;49.48;102836.81;16124316;19;129688;-43
2022/11/11 03:49:23;;;;;;;0.88;0.70;;;;;;;18.15;49.26;102834.91;16122602;19;132876;-42
2022/11/11 03:54:45;;;;;;;1.85;0.80;;;;;;;18.14;49.11;102830.41;16118799;19;129696;-42
2022/11/11 04:00:08;;;;;;;0.90;0.50;;;;;;;18.13;49.43;102822.31;16122283;19;130606;-40
2022/11/11 04:11:27;;;;;;;0.73;0.60;;;;;;;18.13;49.33;102837.00;16118980;19;129720;-43
2022/11/11 04:16:49;;;;;;;1.13;0.60;;;;;;;18.12;49.45;102846.38;16120302;19;130224;-42
2022/11/11 04:22:11;;;;;;;0.57;0.50;;;;;;;18.11;49.46;102844.66;16120305;19;129246;-42
2022/11/11 04:27:32;;;;;;;1.00;0.50;;;;;;;18.10;49.38;102845.69;16119088;19;129435;-42
2022/11/11 04:32:54;;;;;;;1.42;0.60;;;;;;;18.10;49.05;102833.78;16120030;19;129383;-42
2022/11/11 04:49:36;;;;;;;1.52;0.70;;;;;;;18.08;48.95;102831.22;16119027;19;130582;-42
2022/11/11 05:00:42;;;;;;;0.93;0.52;;;;;;;18.07;48.85;102829.50;16127229;19;130060;-43
2022/11/11 05:11:45;;;;;;;1.55;0.60;;;;;;;18.04;49.22;102829.00;16131638;19;130136;-43
2022/11/11 05:22:48;;;;;;;3.22;0.88;;;;;;;18.02;49.36;102848.59;16131075;19;129819;-44
2022/11/11 05:28:10;;;;;;;1.48;0.60;;;;;;;18.03;49.36;102842.00;16131611;19;129788;-43
2022/11/11 05:33:32;;;;;;;2.42;0.70;;;;;;;18.03;48.91;102861.41;16130123;19;130987;-42
2022/11/11 05:38:54;;;;;;;4.20;0.80;;;;;;;18.03;49.19;102855.00;16128222;19;130030;-43
2022/11/11 05:44:15;;;;;;;3.53;0.60;;;;;;;18.02;48.97;102859.69;16129343;19;129984;-44
2022/11/11 05:49:37;;;;;;;1.85;0.73;;;;;;;18.01;49.33;102860.72;16131323;19;129728;-41
2022/11/11 05:54:59;;;;;;;3.13;0.80;;;;;;;18.01;48.99;102863.50;16129273;19;129579;-43
2022/11/11 06:00:20;;;;;;;3.42;0.80;;;;;;;18.01;49.34;102860.72;16129638;19;129802;-43
2022/11/11 06:05:42;;;;;;;2.45;0.70;;;;;;;18.03;49.26;102849.47;16125470;19;129536;-43
2022/11/11 06:11:04;;;;;;;6.25;0.85;;;;;;;18.20;49.14;102844.53;16128830;19;134194;-43
2022/11/11 06:16:25;;;;;;;2.40;0.80;;;;;;;18.56;48.50;102866.66;16128989;19;129733;-44
2022/11/11 06:21:56;;;;;;;6.07;0.70;;;;;;;18.91;48.40;102863.16;16128047;19;129576;-43
2022/11/11 06:27:18;;;;;;;2.00;0.70;;;;;;;19.14;47.77;102862.03;16129159;19;129462;-42
2022/11/11 06:32:39;;;;;;;1.90;0.65;;;;;;;19.25;47.51;102875.38;16125952;19;130483;-43
2022/11/11 06:38:02;;;;;;;3.50;0.70;;;;;;;19.28;47.33;102886.06;16129613;19;129761;-44
2022/11/11 06:43:24;;;;;;;2.30;0.50;;;;;;;19.25;47.77;102882.84;16128413;19;134508;-43
2022/11/11 06:48:46;;;;;;;1.48;0.60;;;;;;;19.18;47.88;102891.09;16124712;19;130341;-43
2022/11/11 06:54:08;;;;;;;3.30;0.77;;;;;;;19.11;47.50;102896.59;16126078;19;130024;-43
2022/11/11 06:59:30;;;;;;;3.35;0.55;;;;;;;19.03;47.95;102894.81;16124286;19;129530;-43
2022/11/11 07:04:52;;;;;;;11.48;1.45;;;;;;;18.97;47.53;102905.84;16121153;19;129603;-43
2022/11/11 07:10:15;;;;;;;7.95;1.23;;;;;;;18.91;47.93;102904.75;16125697;19;129545;-43
2022/11/11 07:15:37;;;;;;;13.77;0.93;;;;;;;18.87;47.81;102909.84;16120215;19;130473;-43
2022/11/11 07:20:58;;;;;;;10.45;1.02;;;;;;;18.83;48.00;102913.22;16125262;19;129771;-43
2022/11/11 07:26:20;;;;;;;14.38;1.02;;;;;;;18.82;47.90;102919.81;16127456;19;129744;-42
2022/11/11 07:31:42;;;;;;;7.30;0.82;;;;;;;18.83;48.01;102918.75;16124207;19;129684;-43
2022/11/11 07:37:03;;;;;;;15.10;1.77;;;;;;;18.83;47.90;102927.94;16126014;19;129811;-42
2022/11/11 07:42:25;;;;;;;14.18;1.45;;;;;;;18.81;47.64;102929.19;16123384;19;130609;-42
2022/11/11 07:47:52;;;;;;;19.92;1.63;;;;;;;18.76;47.80;102932.56;16122917;19;130304;-42
2022/11/11 07:53:14;;;;;;;10.63;1.30;;;;;;;18.76;47.58;102943.66;16120977;19;129550;-43
2022/11/11 07:58:35;;;;;;;16.80;1.63;;;;;;;18.77;47.98;102937.91;16117871;19;129018;-42
2022/11/11 08:03:57;;;;;;;14.23;1.10;;;;;;;18.78;47.43;102941.50;16121398;19;129789;-42
2022/11/11 08:09:19;;;;;;;14.88;1.50;;;;;;;18.74;47.74;102934.66;16119850;19;129649;-42
2022/11/11 08:14:40;;;;;;;12.95;1.70;;;;;;;18.82;47.71;102942.84;16120056;19;129149;-43
2022/11/11 08:20:02;;;;;;;22.23;1.67;;;;;;;18.98;47.15;102947.25;16119643;19;130462;-42
2022/11/11 08:25:25;;;;;;;10.73;1.73;;;;;;;;;;16117968;19;130391;-44
2022/11/11 08:30:47;;;;;;;11.60;1.45;;;;;;;18.85;47.60;102958.22;16120232;19;129417;-43
2022/11/11 08:36:10;;;;;;;10.73;1.38;;;;;;;18.80;47.38;102953.28;16131520;19;129761;-43
2022/11/11 08:41:38;;;;;;;9.80;1.00;;;;;;;18.76;47.59;102950.03;16133957;19;130482;-43
2022/11/11 08:46:59;;;;;;;9.73;1.35;;;;;;;18.71;47.58;102952.53;16138281;19;129625;-43
2022/11/11 08:52:21;;;;;;;11.88;1.30;;;;;;;18.70;47.57;102956.41;16133583;19;130124;-42
2022/11/11 08:57:43;;;;;;;12.07;1.42;;;;;;;18.69;47.17;102957.44;16136466;19;129763;-42
2022/11/11 09:03:08;;;;;;;16.48;1.88;;;;;;;18.71;47.50;102960.84;16132692;19;129627;-41
2022/11/11 09:08:30;;;;;;;14.32;1.50;;;;;;;18.72;47.41;102968.13;16131700;19;130467;-42
2022/11/11 09:13:51;;;;;;;14.32;1.55;;;;;;;18.74;46.94;102979.88;16132153;19;129667;-38
2022/11/11 09:19:13;;;;;;;8.68;1.77;;;;;;;18.74;47.25;102976.25;16132788;19;129598;-40
2022/11/11 09:24:35;;;;;;;13.43;1.63;;;;;;;18.75;46.66;102976.06;16131255;19;130380;-42
2022/11/11 09:29:56;;;;;;;11.60;1.63;;;;;;;18.76;47.15;102986.09;16129716;19;129037;-42
2022/11/11 09:35:19;;;;;;;17.63;1.85;;;;;;;18.77;46.69;102985.03;16130952;19;129728;-42
2022/11/11 09:40:46;;;;;;;10.43;1.50;;;;;;;18.77;46.59;102996.13;16127847;19;129343;-42
2022/11/11 09:46:20;;;;;;;10.85;1.50;;;;;;;18.81;46.09;102992.97;16129786;19;129497;-43
2022/11/11 09:51:58;;;;;;;8.48;1.60;;;;;;;18.90;46.00;102994.56;16128890;19;130140;-42
2022/11/11 09:57:59;;;;;;;17.65;2.30;;;;;;;19.00;45.56;102992.31;16131240;19;129585;-43
2022/11/11 10:03:24;;;;;;;16.70;2.60;;;;;;;19.05;44.96;102989.81;16122420;19;131555;-43
2022/11/11 10:09:01;;;;;;;10.15;3.13;;;;;;;19.05;44.43;102997.25;16124933;19;129521;-42
2022/11/11 10:14:26;;;;;;;11.85;3.17;;;;;;;18.99;43.81;102998.06;16125171;19;129416;-42
2022/11/11 10:20:14;;;;;;;12.13;3.17;;;;;;;18.97;43.10;102997.38;16126119;19;129211;-43
2022/11/11 10:25:40;;;;;;;6.53;3.08;;;;;;;18.89;43.02;102995.59;16126076;19;129530;-43
2022/11/11 10:31:05;;;;;;;12.60;2.65;;;;;;;18.88;42.78;102996.66;16128526;19;129695;-43
2022/11/11 10:36:29;;;;;;;10.02;2.50;;;;;;;18.87;42.72;102998.59;16128062;19;129607;-43
2022/11/11 10:41:57;;;;;;;10.70;2.45;;;;;;;18.86;42.61;102999.63;16127643;19;130888;-43
2022/11/11 10:47:34;;;;;;;11.27;2.15;;;;;;;18.87;43.37;103006.03;16127155;19;133667;-46
2022/11/11 10:53:20;;;;;;;9.13;2.63;;;;;;;18.86;43.66;102990.44;16124111;19;129713;-42
2022/11/11 10:58:50;;;;;;;8.70;2.28;;;;;;;18.83;43.47;102993.63;16122459;19;129591;-43
2022/11/11 11:04:25;;;;;;;10.02;2.28;;;;;;;18.85;43.78;102985.94;16124882;19;129562;-42
2022/11/11 11:09:56;;;;;;;7.80;1.75;;;;;;;18.81;44.34;102977.16;16123206;19;130929;-42
2022/11/11 11:15:21;;;;;;;13.02;1.75;;;;;;;18.80;44.35;102983.78;16125753;19;129920;-44
2022/11/11 11:20:55;;;;;;;14.70;1.90;;;;;;;18.89;44.67;102976.19;16123570;19;130283;-43
2022/11/11 11:26:17;;;;;;;15.73;2.50;;;;;;;18.87;44.75;102978.28;16120816;19;129978;-48
2022/11/11 11:31:41;;;;;;;6.82;1.55;;;;;;;18.86;45.08;102971.03;16120647;19;129846;-43
2022/11/11 11:37:03;;;;;;;7.33;1.30;;;;;;;18.85;45.04;102970.19;16121332;19;129829;-43
2022/11/11 11:42:35;;;;;;;8.75;1.48;;;;;;;18.88;45.49;102963.38;16120630;19;129878;-42
2022/11/11 11:48:12;;;;;;;10.75;1.45;;;;;;;18.87;45.76;102972.75;16121476;19;129591;-42
2022/11/11 11:54:27;;;;;;;7.47;1.33;;;;;;;18.86;45.77;102960.81;16120966;19;129576;-43
2022/11/11 12:00:26;;;;;;;9.52;1.52;;;;;;;18.85;46.09;102959.09;16119125;19;129408;-43
2022/11/11 12:06:20;;;;;;;5.65;1.25;;;;;;;18.84;46.21;102962.91;16119896;19;129519;-42
2022/11/11 12:12:01;;;;;;;4.32;1.20;;;;;;;18.85;46.06;102961.00;16118071;19;129544;-42
2022/11/11 12:17:49;;;;;;;6.13;0.88;;;;;;;18.84;46.11;102953.72;16120805;19;129593;-42
2022/11/11 12:23:13;;;;;;;6.97;1.30;;;;;;;18.85;46.51;102952.66;16125652;19;129821;-41
2022/11/11 12:28:50;;;;;;;4.03;0.77;;;;;;;18.85;46.72;102952.66;16121049;19;129573;-43
2022/11/11 12:34:31;;;;;;;4.55;1.00;;;;;;;18.85;46.69;102945.22;16120347;19;129723;-43
2022/11/11 12:40:17;;;;;;;6.07;1.00;;;;;;;18.85;46.25;102941.56;16119270;19;129522;-43
2022/11/11 12:45:59;;;;;;;7.05;1.17;;;;;;;18.85;46.78;102936.91;16119203;19;134882;-43
2022/11/11 12:52:01;;;;;;;8.90;1.30;;;;;;;18.85;46.65;102936.03;16119531;19;129508;-42
2022/11/11 12:57:41;;;;;;;3.72;1.30;;;;;;;18.83;46.88;102933.47;16121875;19;129443;-43
2022/11/11 13:03:36;;;;;;;7.72;1.10;;;;;;;18.79;46.46;102929.38;16118684;19;129123;-43
2022/11/11 13:09:16;;;;;;;2.78;0.80;;;;;;;18.75;46.77;102926.13;16119142;19;129342;-43
2022/11/11 13:15:11;;;;;;;7.03;1.20;;;;;;;18.74;46.64;102918.03;16115260;19;129462;-43
2022/11/11 13:21:05;;;;;;;5.65;0.90;;;;;;;18.70;46.89;102912.03;16117470;19;129480;-43
2022/11/11 13:26:40;;;;;;;5.57;0.90;;;;;;;18.67;46.55;102909.66;16130861;19;129778;-42
2022/11/11 13:32:05;;;;;;;3.92;0.93;;;;;;;18.67;46.71;102908.78;16132496;19;129871;-43
2022/11/11 13:37:32;;;;;;;8.90;1.00;;;;;;;18.67;46.42;102909.66;16131205;19;129710;-43
2022/11/11 13:42:53;;;;;;;3.55;1.08;;;;;;;18.69;46.42;102915.84;16130871;19;129086;-43
2022/11/11 13:48:23;;;;;;;6.78;1.00;;;;;;;18.71;46.59;102910.94;16130731;19;129435;-42
2022/11/11 13:53:47;;;;;;;5.80;0.90;;;;;;;18.69;46.21;102904.78;16127306;19;129705;-43
2022/11/11 13:59:25;;;;;;;2.28;0.88;;;;;;;18.69;46.10;102904.78;16129203;19;130286;-43
2022/11/11 14:05:02;;;;;;;2.55;0.80;;;;;;;18.68;46.47;102896.63;16127571;19;129546;-42
2022/11/11 14:10:24;;;;;;;4.57;0.77;;;;;;;18.64;46.13;102887.00;16133032;19;131299;-43
2022/11/11 14:15:49;;;;;;;7.28;0.77;;;;;;;18.63;46.17;102891.69;16129680;19;129757;-43
2022/11/11 14:21:46;;;;;;;1.90;0.43;;;;;;;18.67;46.32;102886.59;16130467;19;129932;-42
2022/11/11 14:27:09;;;;;;;3.92;0.63;;;;;;;18.65;46.19;102880.38;16132149;19;130631;-43
2022/11/11 14:32:36;;;;;;;10.60;0.98;;;;;;;18.66;46.44;102882.97;16127234;19;129539;-43
2022/11/11 14:38:06;;;;;;;4.70;0.70;;;;;;;18.65;46.26;102886.81;16126385;19;129761;-43
2022/11/11 14:43:30;;;;;;;3.33;0.70;;;;;;;18.65;46.28;102886.81;16127722;19;130172;-42
2022/11/11 14:49:00;;;;;;;3.67;0.75;;;;;;;18.65;46.35;102878.50;16124340;19;129640;-42
2022/11/11 14:54:31;;;;;;;3.60;0.77;;;;;;;18.64;45.87;102875.94;16125928;19;129209;-43
2022/11/11 14:59:55;;;;;;;3.80;1.00;;;;;;;18.57;45.76;102884.19;16123737;19;129477;-43
2022/11/11 15:05:26;;;;;;;5.43;1.20;;;;;;;18.49;44.96;102890.72;16123363;19;129964;-43
2022/11/11 15:11:08;;;;;;;5.43;1.60;;;;;;;18.43;44.82;102881.28;16123471;19;129585;-43
2022/11/11 15:16:52;;;;;;;4.63;1.00;;;;;;;18.40;44.86;102878.88;16121900;19;129729;-43
2022/11/11 15:22:53;;;;;;;3.10;0.93;;;;;;;18.36;44.91;102871.97;16121034;19;129965;-43
2022/11/11 15:28:36;;;;;;;3.70;1.20;;;;;;;18.33;45.12;102871.53;16122566;19;130495;-43
2022/11/11 15:34:06;;;;;;;5.95;1.10;;;;;;;18.30;45.01;102870.00;16121911;19;130730;-44
2022/11/11 15:39:46;;;;;;;6.20;1.00;;;;;;;18.28;45.09;102870.19;16121954;19;129600;-43
2022/11/11 15:45:22;;;;;;;10.25;1.50;;;;;;;18.32;44.95;102876.22;16120102;19;129587;-43
2022/11/11 15:50:44;;;;;;;4.83;1.03;;;;;;;18.29;45.12;102880.22;16122087;19;130523;-43
2022/11/11 15:56:07;;;;;;;6.60;1.02;;;;;;;18.29;45.42;102882.16;16122864;19;129029;-43
2022/11/11 16:01:30;;;;;;;9.93;1.25;;;;;;;18.29;45.35;102883.00;16122834;19;131030;-44
2022/11/11 16:06:52;;;;;;;5.65;1.10;;;;;;;18.27;45.21;102885.13;16121779;19;129335;-43
2022/11/11 16:12:24;;;;;;;2.35;0.80;;;;;;;18.27;45.74;102895.34;16119467;19;129255;-43
2022/11/11 16:17:46;;;;;;;6.32;1.30;;;;;;;18.28;45.36;102891.50;16118395;19;130758;-44
2022/11/11 16:23:11;;;;;;;4.57;1.27;;;;;;;18.33;45.77;102889.03;16119515;19;129917;-44
2022/11/11 16:28:50;;;;;;;5.27;1.20;;;;;;;18.39;45.85;102896.56;16119984;19;130102;-43
2022/11/11 16:34:27;;;;;;;9.93;1.20;;;;;;;18.46;46.22;102903.03;16119054;19;129485;-43
2022/11/11 16:39:48;;;;;;;7.45;1.70;;;;;;;18.67;46.12;102900.47;16119519;19;128965;-43
2022/11/11 16:45:22;;;;;;;6.57;1.27;;;;;;;19.02;46.12;102898.66;16118339;19;129568;-43
2022/11/11 16:50:58;;;;;;;12.90;1.45;;;;;;;19.31;45.34;102902.31;16119066;19;129939;-43
2022/11/11 16:56:25;;;;;;;5.93;1.15;;;;;;;19.47;44.63;102909.47;16129222;19;130016;-43
2022/11/11 17:01:47;;;;;;;7.47;1.90;;;;;;;19.55;44.33;102908.44;16134092;19;130459;-43
2022/11/11 17:07:30;;;;;;;7.13;1.30;;;;;;;19.55;44.14;102911.22;16136922;19;129967;-43
2022/11/11 17:12:52;;;;;;;11.27;1.80;;;;;;;19.53;44.51;102921.66;16133058;19;129470;-44
2022/11/11 17:18:13;;;;;;;5.90;1.40;;;;;;;19.49;44.36;102920.34;16132966;19;129395;-44
2022/11/11 17:23:35;;;;;;;9.18;1.55;;;;;;;19.43;44.49;102915.63;16132345;19;129614;-43
2022/11/11 17:29:01;;;;;;;3.70;0.85;;;;;;;19.37;44.42;102920.91;16134310;19;130050;-43
2022/11/11 17:34:23;;;;;;;10.88;1.67;;;;;;;19.29;44.70;102917.44;16133658;19;129608;-43
2022/11/11 17:39:44;;;;;;;12.20;1.10;;;;;;;19.23;45.10;102916.34;16131254;19;132188;-44
2022/11/11 17:45:07;;;;;;;3.13;1.20;;;;;;;19.16;45.23;102920.94;16129584;19;130723;-43
2022/11/11 17:50:29;;;;;;;42.65;2.78;;;;;;;19.09;45.78;102915.34;16129152;19;129596;-43
2022/11/11 17:55:50;;;;;;;12.98;1.52;;;;;;;19.06;45.86;102922.16;16128871;19;129487;-44
2022/11/11 18:01:14;;;;;;;10.75;2.13;;;;;;;19.08;46.18;102924.72;16130318;19;129604;-43
2022/11/11 18:06:36;;;;;;;22.15;1.85;;;;;;;19.13;46.22;102918.56;16128836;19;130219;-43
2022/11/11 18:11:58;;;;;;;11.15;1.60;;;;;;;19.25;46.49;102918.91;16129715;19;129462;-43
2022/11/11 18:17:20;;;;;;;19.38;1.98;;;;;;;19.44;46.65;102929.28;16127776;19;129561;-43
2022/11/11 18:22:42;;;;;;;13.95;1.70;;;;;;;19.65;46.19;102936.69;16128675;19;129558;-43
2022/11/11 18:28:03;;;;;;;18.98;2.00;;;;;;;19.84;46.23;102934.22;16129569;19;129674;-43
2022/11/11 18:33:25;;;;;;;14.90;2.53;;;;;;;19.97;46.17;102944.56;16127222;19;129287;-46
2022/11/11 18:38:47;;;;;;;21.38;2.53;;;;;;;20.04;46.63;102944.63;16126529;19;130146;-43
2022/11/11 18:44:09;;;;;;;18.27;2.13;;;;;;;20.14;46.65;102950.66;16127635;19;130266;-43
2022/11/11 18:49:31;;;;;;;26.25;2.60;;;;;;;20.17;47.12;102944.69;16123159;19;129288;-43
2022/11/11 18:54:53;;;;;;;21.80;2.50;;;;;;;20.17;47.30;102943.81;16124310;19;129246;-43
2022/11/11 19:00:14;;;;;;;19.75;2.65;;;;;;;20.12;47.12;102942.50;16126800;19;129564;-43
2022/11/11 19:05:36;;;;;;;13.80;2.33;;;;;;;20.06;47.56;102931.38;16126975;19;131239;-43
2022/11/11 19:10:58;;;;;;;9.27;1.95;;;;;;;19.99;47.45;102939.66;16126890;19;129600;-43
2022/11/11 19:16:22;;;;;;;13.20;2.20;;;;;;;19.93;47.55;102937.69;16124002;19;129536;-43
2022/11/11 19:21:44;;;;;;;15.85;2.22;;;;;;;19.87;48.19;102941.31;16120773;19;132992;-43
2022/11/11 19:27:06;;;;;;;19.70;2.50;;;;;;;19.80;47.92;102941.28;16124488;19;129532;-43
2022/11/11 19:32:27;;;;;;;12.70;1.85;;;;;;;19.76;48.00;102945.50;16123190;19;129571;-44
2022/11/11 19:37:49;;;;;;;11.75;1.73;;;;;;;19.71;48.22;102939.69;16122533;19;130566;-43
2022/11/11 19:43:11;;;;;;;14.75;1.75;;;;;;;19.67;48.47;102950.38;16123059;19;130624;-43
2022/11/11 19:48:33;;;;;;;11.02;1.52;;;;;;;19.62;48.42;102959.31;16123718;19;129063;-42
2022/11/11 19:53:56;;;;;;;10.00;1.75;;;;;;;19.57;48.53;102953.50;16123022;19;129972;-43
2022/11/11 19:59:18;;;;;;;14.15;1.60;;;;;;;19.51;48.41;102962.66;16118563;19;129578;-32
2022/11/11 20:04:39;;;;;;;9.88;1.30;;;;;;;19.50;48.84;102966.50;16126271;19;129946;-35
2022/11/11 20:10:01;;;;;;;11.13;1.40;;;;;;;19.53;48.74;102974.41;16128156;19;130172;-42
2022/11/11 20:15:23;;;;;;;10.32;1.40;;;;;;;19.65;48.62;102988.59;16130967;19;129835;-42
2022/11/11 20:20:45;;;;;;;17.75;1.73;;;;;;;19.95;48.60;102994.75;16120464;19;129775;-43
2022/11/11 20:26:13;;;;;;;14.15;1.70;;;;;;;20.40;48.23;102991.56;16116247;19;129257;-42
2022/11/11 20:31:35;;;;;;;13.43;1.88;;;;;;;20.84;47.53;102994.94;16141691;19;129432;-42
2022/11/11 20:36:56;;;;;;;9.45;1.42;;;;;;;21.23;47.09;103000.78;16152335;19;129623;-42
2022/11/11 20:42:19;;;;;;;9.65;1.48;;;;;;;21.52;46.10;103005.09;16153213;19;129622;-42
2022/11/11 20:47:40;;;;;;;16.20;1.55;;;;;;;21.65;45.87;103009.78;16146812;19;129794;-42
2022/11/11 20:53:02;;;;;;;9.93;1.88;;;;;;;21.65;46.04;103006.13;16147299;19;130661;-42
2022/11/11 20:58:24;;;;;;;9.43;1.52;;;;;;;21.60;45.74;103011.50;16144791;19;129477;-43
2022/11/11 21:03:45;;;;;;;6.07;1.23;;;;;;;21.54;45.83;103010.44;16145234;19;129647;-44
2022/11/11 21:09:09;;;;;;;17.70;1.45;;;;;;;21.46;46.13;103002.28;16148263;19;130556;-41
2022/11/11 21:14:30;;;;;;;11.15;1.40;;;;;;;21.35;46.35;103006.53;16147249;19;129861;-43
2022/11/11 21:19:52;;;;;;;4.57;1.60;;;;;;;21.25;46.30;103004.19;16138731;19;130732;-42
2022/11/11 21:25:14;;;;;;;7.40;1.38;;;;;;;21.15;46.48;102999.06;16147625;19;130152;-43
2022/11/11 21:30:36;;;;;;;5.03;1.70;;;;;;;21.07;46.59;102993.69;16144368;19;130584;-42
2022/11/11 21:36:05;;;;;;;8.52;1.40;;;;;;;20.96;47.04;103003.53;16145196;19;129146;-43
2022/11/11 21:41:28;;;;;;;6.75;1.40;;;;;;;20.87;46.96;103004.78;16134806;19;130385;-43
2022/11/11 21:46:50;;;;;;;17.65;2.42;;;;;;;20.73;46.34;103009.44;16128062;19;129545;-42
2022/11/11 21:52:12;;;;;;;12.57;2.00;;;;;;;20.59;46.62;103009.41;16127895;19;129618;-43
2022/11/11 21:57:33;;;;;;;20.52;2.78;;;;;;;20.47;46.37;103011.06;16127336;19;130283;-43
2022/11/11 22:02:55;;;;;;;10.52;1.88;;;;;;;20.35;46.21;103021.06;16129342;19;129813;-43
2022/11/11 22:08:17;;;;;;;9.70;1.85;;;;;;;20.23;46.66;103018.03;16129855;19;129514;-42
2022/11/11 22:13:40;;;;;;;11.18;2.30;;;;;;;20.10;46.44;103019.69;16129199;19;129511;-42
2022/11/11 22:19:10;;;;;;;7.15;1.70;;;;;;;20.02;46.76;103032.88;16132246;19;130379;-43
2022/11/11 22:24:31;;;;;;;6.28;1.73;;;;;;;19.91;46.68;103032.34;16128462;19;131291;-42
2022/11/11 22:29:53;;;;;;;4.32;1.50;;;;;;;19.84;47.09;103037.00;16126685;19;129694;-42
2022/11/11 22:35:14;;;;;;;4.45;1.77;;;;;;;19.78;46.94;103030.34;16127023;19;129860;-43
2022/11/11 22:40:36;;;;;;;5.32;1.80;;;;;;;19.68;47.05;103039.03;16126653;19;129994;-43
2022/11/11 22:45:58;;;;;;;6.38;1.17;;;;;;;19.64;47.18;103034.94;16127198;19;130109;-42
2022/11/11 22:51:21;;;;;;;2.70;1.23;;;;;;;19.59;47.05;103034.69;16129401;19;129827;-43
2022/11/11 22:56:43;;;;;;;3.35;1.40;;;;;;;19.54;47.27;103031.66;16125054;19;130270;-43
2022/11/11 23:02:04;;;;;;;1.58;1.20;;;;;;;19.49;46.83;103039.72;16124921;19;130092;-42
2022/11/11 23:07:26;;;;;;;4.20;1.10;;;;;;;19.42;46.92;103031.34;16121949;19;130993;-42
2022/11/11 23:12:48;;;;;;;7.40;1.27;;;;;;;19.38;47.33;103046.69;16123697;19;130835;-42
2022/11/11 23:18:14;;;;;;;3.10;1.10;;;;;;;19.34;47.49;103057.31;16124696;19;130283;-42
2022/11/11 23:23:37;;;;;;;3.78;1.20;;;;;;;19.29;47.38;103051.53;16121496;19;130619;-43
2022/11/11 23:28:59;;;;;;;2.13;1.13;;;;;;;19.26;47.28;103046.38;16122788;19;129615;-43
2022/11/11 23:34:21;;;;;;;2.90;1.00;;;;;;;19.22;47.32;103042.25;16121868;19;130310;-42
2022/11/11 23:39:42;;;;;;;4.85;1.10;;;;;;;19.19;47.09;103037.09;16119985;19;130263;-43
2022/11/11 23:45:05;;;;;;;2.03;0.93;;;;;;;19.16;47.05;103040.25;16129903;19;132365;-43
2022/11/11 23:50:26;;;;;;;1.80;1.10;;;;;;;19.12;47.37;103036.16;16126947;19;131025;-42
2022/11/11 23:55:48;;;;;;;1.33;1.08;;;;;;;19.07;47.29;103034.84;16123067;19;130284;-42
